sensor_id;sensor_type;location;lat;lon;timestamp;P1;durP1;ratioP1;P2;durP2;ratioP2
75209;SDS011;63796;53.136;14.882;2023-12-20T00:01:31;14.10;;;6.50;;
75209;SDS011;63796;53.136;14.882;2023-12-20T00:03:58;7.20;;;4.20;;
75209;SDS011;63796;53.136;14.882;2023-12-20T00:06:26;8.70;;;4.90;;
75209;SDS011;63796;53.136;14.882;2023-12-20T00:08:53;6.90;;;4.50;;
75209;SDS011;63796;53.136;14.882;2023-12-20T00:11:21;11.80;;;5.60;;
75209;SDS011;63796;53.136;14.882;2023-12-20T00:13:48;6.20;;;3.50;;
75209;SDS011;63796;53.136;14.882;2023-12-20T00:16:18;7.50;;;4.30;;
75209;SDS011;63796;53.136;14.882;2023-12-20T00:18:46;13.10;;;6.60;;
75209;SDS011;63796;53.136;14.882;2023-12-20T00:21:13;14.10;;;5.60;;
75209;SDS011;63796;53.136;14.882;2023-12-20T00:23:41;8.40;;;4.60;;
75209;SDS011;63796;53.136;14.882;2023-12-20T00:26:08;5.30;;;3.60;;
75209;SDS011;63796;53.136;14.882;2023-12-20T00:28:36;13.00;;;7.00;;
75209;SDS011;63796;53.136;14.882;2023-12-20T00:31:03;28.80;;;7.70;;
75209;SDS011;63796;53.136;14.882;2023-12-20T00:33:32;16.10;;;5.20;;
75209;SDS011;63796;53.136;14.882;2023-12-20T00:35:59;14.30;;;7.70;;
75209;SDS011;63796;53.136;14.882;2023-12-20T00:38:28;17.40;;;6.00;;
75209;SDS011;63796;53.136;14.882;2023-12-20T00:40:55;8.30;;;3.50;;
75209;SDS011;63796;53.136;14.882;2023-12-20T00:43:23;6.60;;;3.40;;
75209;SDS011;63796;53.136;14.882;2023-12-20T00:45:51;10.50;;;5.30;;
75209;SDS011;63796;53.136;14.882;2023-12-20T00:48:18;2.60;;;1.80;;
75209;SDS011;63796;53.136;14.882;2023-12-20T00:50:45;2.50;;;1.50;;
75209;SDS011;63796;53.136;14.882;2023-12-20T00:53:13;3.90;;;1.40;;
75209;SDS011;63796;53.136;14.882;2023-12-20T00:55:40;1.90;;;1.20;;
75209;SDS011;63796;53.136;14.882;2023-12-20T00:58:08;1.20;;;0.90;;
75209;SDS011;63796;53.136;14.882;2023-12-20T01:00:35;1.80;;;0.90;;
75209;SDS011;63796;53.136;14.882;2023-12-20T01:03:03;3.50;;;1.80;;
75209;SDS011;63796;53.136;14.882;2023-12-20T01:05:31;6.50;;;2.70;;
75209;SDS011;63796;53.136;14.882;2023-12-20T01:07:59;1.10;;;0.70;;
75209;SDS011;63796;53.136;14.882;2023-12-20T01:10:27;0.60;;;0.20;;
75209;SDS011;63796;53.136;14.882;2023-12-20T01:12:56;2.60;;;0.30;;
75209;SDS011;63796;53.136;14.882;2023-12-20T01:15:23;0.50;;;0.30;;
75209;SDS011;63796;53.136;14.882;2023-12-20T01:17:51;0.80;;;0.20;;
75209;SDS011;63796;53.136;14.882;2023-12-20T01:20:19;2.40;;;0.50;;
75209;SDS011;63796;53.136;14.882;2023-12-20T01:22:47;3.10;;;0.90;;
75209;SDS011;63796;53.136;14.882;2023-12-20T01:25:15;3.90;;;0.80;;
75209;SDS011;63796;53.136;14.882;2023-12-20T01:27:42;7.60;;;2.30;;
75209;SDS011;63796;53.136;14.882;2023-12-20T01:30:10;3.60;;;0.70;;
75209;SDS011;63796;53.136;14.882;2023-12-20T01:32:38;2.10;;;0.70;;
75209;SDS011;63796;53.136;14.882;2023-12-20T01:35:06;0.70;;;0.20;;
75209;SDS011;63796;53.136;14.882;2023-12-20T01:37:34;0.60;;;0.10;;
75209;SDS011;63796;53.136;14.882;2023-12-20T01:40:01;1.80;;;0.90;;
75209;SDS011;63796;53.136;14.882;2023-12-20T01:42:30;2.00;;;1.00;;
75209;SDS011;63796;53.136;14.882;2023-12-20T01:44:57;2.60;;;0.60;;
75209;SDS011;63796;53.136;14.882;2023-12-20T01:47:25;2.60;;;0.60;;
75209;SDS011;63796;53.136;14.882;2023-12-20T01:49:54;1.60;;;0.20;;
75209;SDS011;63796;53.136;14.882;2023-12-20T01:52:25;0.70;;;0.30;;
75209;SDS011;63796;53.136;14.882;2023-12-20T01:54:54;0.70;;;0.30;;
75209;SDS011;63796;53.136;14.882;2023-12-20T01:57:28;2.10;;;0.50;;
75209;SDS011;63796;53.136;14.882;2023-12-20T01:59:56;3.90;;;0.80;;
75209;SDS011;63796;53.136;14.882;2023-12-20T02:02:24;2.70;;;1.00;;
75209;SDS011;63796;53.136;14.882;2023-12-20T02:04:53;17.40;;;1.50;;
75209;SDS011;63796;53.136;14.882;2023-12-20T02:07:22;3.10;;;1.10;;
75209;SDS011;63796;53.136;14.882;2023-12-20T02:09:50;5.10;;;1.00;;
75209;SDS011;63796;53.136;14.882;2023-12-20T02:12:18;2.00;;;0.60;;
75209;SDS011;63796;53.136;14.882;2023-12-20T02:14:46;3.10;;;0.60;;
75209;SDS011;63796;53.136;14.882;2023-12-20T02:17:13;3.30;;;0.80;;
75209;SDS011;63796;53.136;14.882;2023-12-20T02:19:42;1.60;;;0.40;;
75209;SDS011;63796;53.136;14.882;2023-12-20T02:22:11;2.50;;;0.70;;
75209;SDS011;63796;53.136;14.882;2023-12-20T02:24:39;4.40;;;0.90;;
75209;SDS011;63796;53.136;14.882;2023-12-20T02:27:07;3.40;;;1.00;;
75209;SDS011;63796;53.136;14.882;2023-12-20T02:29:35;1.50;;;0.80;;
75209;SDS011;63796;53.136;14.882;2023-12-20T02:32:03;1.80;;;1.00;;
75209;SDS011;63796;53.136;14.882;2023-12-20T02:34:30;5.50;;;1.00;;
75209;SDS011;63796;53.136;14.882;2023-12-20T02:36:58;4.30;;;1.40;;
75209;SDS011;63796;53.136;14.882;2023-12-20T02:39:26;3.90;;;1.70;;
75209;SDS011;63796;53.136;14.882;2023-12-20T02:41:54;10.90;;;3.70;;
75209;SDS011;63796;53.136;14.882;2023-12-20T02:44:21;9.00;;;3.50;;
75209;SDS011;63796;53.136;14.882;2023-12-20T02:46:49;1.90;;;0.60;;
75209;SDS011;63796;53.136;14.882;2023-12-20T02:49:16;1.90;;;0.60;;
75209;SDS011;63796;53.136;14.882;2023-12-20T02:51:44;4.40;;;1.10;;
75209;SDS011;63796;53.136;14.882;2023-12-20T02:54:12;3.50;;;1.30;;
75209;SDS011;63796;53.136;14.882;2023-12-20T02:56:39;2.60;;;1.50;;
75209;SDS011;63796;53.136;14.882;2023-12-20T02:59:07;4.20;;;1.10;;
75209;SDS011;63796;53.136;14.882;2023-12-20T03:01:41;4.30;;;1.10;;
75209;SDS011;63796;53.136;14.882;2023-12-20T03:04:10;4.30;;;1.40;;
75209;SDS011;63796;53.136;14.882;2023-12-20T03:06:38;4.20;;;1.60;;
75209;SDS011;63796;53.136;14.882;2023-12-20T03:09:06;5.30;;;2.20;;
75209;SDS011;63796;53.136;14.882;2023-12-20T03:11:33;6.60;;;2.30;;
75209;SDS011;63796;53.136;14.882;2023-12-20T03:14:00;6.10;;;2.20;;
75209;SDS011;63796;53.136;14.882;2023-12-20T03:16:28;19.20;;;5.60;;
75209;SDS011;63796;53.136;14.882;2023-12-20T03:18:56;37.30;;;10.60;;
75209;SDS011;63796;53.136;14.882;2023-12-20T03:21:23;53.90;;;13.40;;
75209;SDS011;63796;53.136;14.882;2023-12-20T03:23:51;19.70;;;5.20;;
75209;SDS011;63796;53.136;14.882;2023-12-20T03:26:19;25.60;;;7.70;;
75209;SDS011;63796;53.136;14.882;2023-12-20T03:28:46;31.30;;;9.00;;
75209;SDS011;63796;53.136;14.882;2023-12-20T03:31:14;30.40;;;8.50;;
75209;SDS011;63796;53.136;14.882;2023-12-20T03:33:41;10.30;;;3.30;;
75209;SDS011;63796;53.136;14.882;2023-12-20T03:36:09;6.40;;;1.90;;
75209;SDS011;63796;53.136;14.882;2023-12-20T03:38:36;7.40;;;2.40;;
75209;SDS011;63796;53.136;14.882;2023-12-20T03:41:04;2.90;;;1.30;;
75209;SDS011;63796;53.136;14.882;2023-12-20T03:43:31;4.10;;;1.40;;
75209;SDS011;63796;53.136;14.882;2023-12-20T03:45:59;1.80;;;0.60;;
75209;SDS011;63796;53.136;14.882;2023-12-20T03:48:27;3.00;;;0.50;;
75209;SDS011;63796;53.136;14.882;2023-12-20T03:50:56;2.90;;;0.60;;
75209;SDS011;63796;53.136;14.882;2023-12-20T03:53:24;7.70;;;3.10;;
75209;SDS011;63796;53.136;14.882;2023-12-20T03:55:51;5.80;;;3.30;;
75209;SDS011;63796;53.136;14.882;2023-12-20T03:58:19;7.30;;;1.90;;
75209;SDS011;63796;53.136;14.882;2023-12-20T04:00:48;21.10;;;6.30;;
75209;SDS011;63796;53.136;14.882;2023-12-20T04:03:15;12.70;;;4.60;;
75209;SDS011;63796;53.136;14.882;2023-12-20T04:05:43;15.40;;;4.60;;
75209;SDS011;63796;53.136;14.882;2023-12-20T04:08:11;17.60;;;5.90;;
75209;SDS011;63796;53.136;14.882;2023-12-20T04:10:39;21.90;;;6.50;;
75209;SDS011;63796;53.136;14.882;2023-12-20T04:13:06;16.40;;;6.00;;
75209;SDS011;63796;53.136;14.882;2023-12-20T04:15:33;51.30;;;21.80;;
75209;SDS011;63796;53.136;14.882;2023-12-20T04:18:01;37.40;;;27.60;;
75209;SDS011;63796;53.136;14.882;2023-12-20T04:20:29;66.50;;;36.40;;
75209;SDS011;63796;53.136;14.882;2023-12-20T04:22:56;26.70;;;15.70;;
75209;SDS011;63796;53.136;14.882;2023-12-20T04:25:25;41.10;;;26.30;;
75209;SDS011;63796;53.136;14.882;2023-12-20T04:27:52;41.60;;;26.20;;
75209;SDS011;63796;53.136;14.882;2023-12-20T04:30:20;45.00;;;18.80;;
75209;SDS011;63796;53.136;14.882;2023-12-20T04:32:48;34.30;;;10.90;;
75209;SDS011;63796;53.136;14.882;2023-12-20T04:35:15;25.00;;;9.00;;
75209;SDS011;63796;53.136;14.882;2023-12-20T04:37:44;10.40;;;5.00;;
75209;SDS011;63796;53.136;14.882;2023-12-20T04:40:12;6.60;;;3.70;;
75209;SDS011;63796;53.136;14.882;2023-12-20T04:42:40;15.10;;;7.70;;
75209;SDS011;63796;53.136;14.882;2023-12-20T04:45:07;9.80;;;4.30;;
75209;SDS011;63796;53.136;14.882;2023-12-20T04:47:35;12.50;;;4.80;;
75209;SDS011;63796;53.136;14.882;2023-12-20T04:50:03;11.30;;;4.60;;
75209;SDS011;63796;53.136;14.882;2023-12-20T04:52:31;5.00;;;2.60;;
75209;SDS011;63796;53.136;14.882;2023-12-20T04:54:59;12.20;;;5.20;;
75209;SDS011;63796;53.136;14.882;2023-12-20T04:57:26;12.40;;;7.10;;
75209;SDS011;63796;53.136;14.882;2023-12-20T04:59:54;19.90;;;10.80;;
75209;SDS011;63796;53.136;14.882;2023-12-20T05:02:22;14.80;;;6.20;;
75209;SDS011;63796;53.136;14.882;2023-12-20T05:04:49;20.90;;;10.40;;
75209;SDS011;63796;53.136;14.882;2023-12-20T05:07:20;42.50;;;24.80;;
75209;SDS011;63796;53.136;14.882;2023-12-20T05:09:48;22.20;;;10.10;;
75209;SDS011;63796;53.136;14.882;2023-12-20T05:12:15;11.90;;;2.80;;
75209;SDS011;63796;53.136;14.882;2023-12-20T05:14:43;8.10;;;2.70;;
75209;SDS011;63796;53.136;14.882;2023-12-20T05:17:11;15.10;;;4.80;;
75209;SDS011;63796;53.136;14.882;2023-12-20T05:19:39;16.30;;;5.40;;
75209;SDS011;63796;53.136;14.882;2023-12-20T05:22:06;20.30;;;6.20;;
75209;SDS011;63796;53.136;14.882;2023-12-20T05:24:34;32.40;;;11.00;;
75209;SDS011;63796;53.136;14.882;2023-12-20T05:27:01;16.10;;;5.60;;
75209;SDS011;63796;53.136;14.882;2023-12-20T05:29:29;32.70;;;10.60;;
75209;SDS011;63796;53.136;14.882;2023-12-20T05:31:58;28.30;;;10.60;;
75209;SDS011;63796;53.136;14.882;2023-12-20T05:34:25;48.40;;;17.60;;
75209;SDS011;63796;53.136;14.882;2023-12-20T05:36:53;37.40;;;12.20;;
75209;SDS011;63796;53.136;14.882;2023-12-20T05:39:20;42.70;;;13.50;;
75209;SDS011;63796;53.136;14.882;2023-12-20T05:41:48;42.00;;;12.60;;
75209;SDS011;63796;53.136;14.882;2023-12-20T05:44:15;30.90;;;9.50;;
75209;SDS011;63796;53.136;14.882;2023-12-20T05:46:43;26.70;;;8.70;;
75209;SDS011;63796;53.136;14.882;2023-12-20T05:49:11;16.30;;;5.60;;
75209;SDS011;63796;53.136;14.882;2023-12-20T05:51:38;10.60;;;3.10;;
75209;SDS011;63796;53.136;14.882;2023-12-20T05:54:06;13.10;;;3.70;;
75209;SDS011;63796;53.136;14.882;2023-12-20T05:56:33;8.00;;;2.50;;
75209;SDS011;63796;53.136;14.882;2023-12-20T05:59:00;15.70;;;3.20;;
75209;SDS011;63796;53.136;14.882;2023-12-20T06:01:28;44.80;;;11.10;;
75209;SDS011;63796;53.136;14.882;2023-12-20T06:03:55;9.40;;;1.60;;
75209;SDS011;63796;53.136;14.882;2023-12-20T06:06:23;17.80;;;4.50;;
75209;SDS011;63796;53.136;14.882;2023-12-20T06:08:51;24.10;;;6.10;;
75209;SDS011;63796;53.136;14.882;2023-12-20T06:11:19;16.40;;;4.20;;
75209;SDS011;63796;53.136;14.882;2023-12-20T06:13:46;27.80;;;7.40;;
75209;SDS011;63796;53.136;14.882;2023-12-20T06:16:14;43.20;;;10.20;;
75209;SDS011;63796;53.136;14.882;2023-12-20T06:18:42;38.90;;;9.50;;
75209;SDS011;63796;53.136;14.882;2023-12-20T06:21:10;37.10;;;10.30;;
75209;SDS011;63796;53.136;14.882;2023-12-20T06:23:40;31.50;;;9.30;;
75209;SDS011;63796;53.136;14.882;2023-12-20T06:26:08;31.10;;;8.20;;
75209;SDS011;63796;53.136;14.882;2023-12-20T06:28:35;23.70;;;6.10;;
75209;SDS011;63796;53.136;14.882;2023-12-20T06:31:06;13.60;;;3.40;;
75209;SDS011;63796;53.136;14.882;2023-12-20T06:33:33;11.10;;;2.90;;
75209;SDS011;63796;53.136;14.882;2023-12-20T06:36:01;12.60;;;3.90;;
75209;SDS011;63796;53.136;14.882;2023-12-20T06:38:29;5.20;;;2.00;;
75209;SDS011;63796;53.136;14.882;2023-12-20T06:40:56;5.70;;;0.80;;
75209;SDS011;63796;53.136;14.882;2023-12-20T06:43:25;14.30;;;2.20;;
75209;SDS011;63796;53.136;14.882;2023-12-20T06:46:12;8.20;;;1.40;;
75209;SDS011;63796;53.136;14.882;2023-12-20T06:48:40;4.40;;;0.70;;
75209;SDS011;63796;53.136;14.882;2023-12-20T06:51:14;5.30;;;0.80;;
75209;SDS011;63796;53.136;14.882;2023-12-20T06:53:42;6.40;;;1.50;;
75209;SDS011;63796;53.136;14.882;2023-12-20T06:56:10;9.70;;;1.50;;
75209;SDS011;63796;53.136;14.882;2023-12-20T06:58:41;17.60;;;5.10;;
75209;SDS011;63796;53.136;14.882;2023-12-20T07:01:16;6.40;;;1.60;;
75209;SDS011;63796;53.136;14.882;2023-12-20T07:03:44;4.90;;;1.00;;
75209;SDS011;63796;53.136;14.882;2023-12-20T07:06:11;6.20;;;1.50;;
75209;SDS011;63796;53.136;14.882;2023-12-20T07:08:40;8.80;;;2.40;;
75209;SDS011;63796;53.136;14.882;2023-12-20T07:11:07;6.10;;;1.10;;
75209;SDS011;63796;53.136;14.882;2023-12-20T07:13:35;4.60;;;0.70;;
75209;SDS011;63796;53.136;14.882;2023-12-20T07:16:03;5.50;;;0.70;;
75209;SDS011;63796;53.136;14.882;2023-12-20T07:18:31;8.20;;;1.00;;
75209;SDS011;63796;53.136;14.882;2023-12-20T07:20:58;6.90;;;0.70;;
75209;SDS011;63796;53.136;14.882;2023-12-20T07:23:26;6.30;;;1.10;;
75209;SDS011;63796;53.136;14.882;2023-12-20T07:25:54;4.70;;;0.50;;
75209;SDS011;63796;53.136;14.882;2023-12-20T07:28:21;4.10;;;0.90;;
75209;SDS011;63796;53.136;14.882;2023-12-20T07:30:49;5.00;;;0.70;;
75209;SDS011;63796;53.136;14.882;2023-12-20T07:33:16;9.10;;;1.40;;
75209;SDS011;63796;53.136;14.882;2023-12-20T07:35:44;3.60;;;0.70;;
75209;SDS011;63796;53.136;14.882;2023-12-20T07:38:12;2.50;;;0.40;;
75209;SDS011;63796;53.136;14.882;2023-12-20T07:40:40;5.40;;;0.60;;
75209;SDS011;63796;53.136;14.882;2023-12-20T07:43:07;5.80;;;2.30;;
75209;SDS011;63796;53.136;14.882;2023-12-20T07:45:35;11.50;;;0.90;;
75209;SDS011;63796;53.136;14.882;2023-12-20T07:48:03;4.20;;;0.70;;
75209;SDS011;63796;53.136;14.882;2023-12-20T07:50:31;9.70;;;1.50;;
75209;SDS011;63796;53.136;14.882;2023-12-20T07:52:58;8.20;;;1.80;;
75209;SDS011;63796;53.136;14.882;2023-12-20T07:55:28;14.60;;;2.40;;
75209;SDS011;63796;53.136;14.882;2023-12-20T07:57:56;15.80;;;4.10;;
75209;SDS011;63796;53.136;14.882;2023-12-20T08:00:23;25.90;;;6.10;;
75209;SDS011;63796;53.136;14.882;2023-12-20T08:02:51;15.50;;;2.60;;
75209;SDS011;63796;53.136;14.882;2023-12-20T08:05:18;9.10;;;1.70;;
75209;SDS011;63796;53.136;14.882;2023-12-20T08:07:46;17.60;;;4.20;;
75209;SDS011;63796;53.136;14.882;2023-12-20T08:10:14;7.50;;;2.20;;
75209;SDS011;63796;53.136;14.882;2023-12-20T08:12:41;8.20;;;2.10;;
75209;SDS011;63796;53.136;14.882;2023-12-20T08:15:09;15.80;;;4.20;;
75209;SDS011;63796;53.136;14.882;2023-12-20T08:17:36;11.50;;;2.60;;
75209;SDS011;63796;53.136;14.882;2023-12-20T08:20:04;20.10;;;5.00;;
75209;SDS011;63796;53.136;14.882;2023-12-20T08:22:32;12.10;;;2.90;;
75209;SDS011;63796;53.136;14.882;2023-12-20T08:25:00;10.40;;;2.60;;
75209;SDS011;63796;53.136;14.882;2023-12-20T08:27:27;6.60;;;1.80;;
75209;SDS011;63796;53.136;14.882;2023-12-20T08:29:55;23.60;;;5.70;;
75209;SDS011;63796;53.136;14.882;2023-12-20T08:32:25;20.50;;;6.60;;
75209;SDS011;63796;53.136;14.882;2023-12-20T08:34:54;19.30;;;5.60;;
75209;SDS011;63796;53.136;14.882;2023-12-20T08:37:22;7.70;;;2.10;;
75209;SDS011;63796;53.136;14.882;2023-12-20T08:39:49;21.30;;;4.90;;
75209;SDS011;63796;53.136;14.882;2023-12-20T08:42:16;10.90;;;2.70;;
75209;SDS011;63796;53.136;14.882;2023-12-20T08:44:44;4.90;;;1.90;;
75209;SDS011;63796;53.136;14.882;2023-12-20T08:47:11;4.20;;;1.00;;
75209;SDS011;63796;53.136;14.882;2023-12-20T08:49:40;19.20;;;3.70;;
75209;SDS011;63796;53.136;14.882;2023-12-20T08:52:08;16.90;;;4.30;;
75209;SDS011;63796;53.136;14.882;2023-12-20T08:54:35;10.30;;;3.30;;
75209;SDS011;63796;53.136;14.882;2023-12-20T08:57:03;5.70;;;1.30;;
75209;SDS011;63796;53.136;14.882;2023-12-20T08:59:31;16.60;;;3.30;;
75209;SDS011;63796;53.136;14.882;2023-12-20T09:01:58;22.80;;;4.40;;
75209;SDS011;63796;53.136;14.882;2023-12-20T09:04:26;8.90;;;1.90;;
75209;SDS011;63796;53.136;14.882;2023-12-20T09:06:53;14.40;;;4.70;;
75209;SDS011;63796;53.136;14.882;2023-12-20T09:09:21;7.40;;;3.10;;
75209;SDS011;63796;53.136;14.882;2023-12-20T09:11:48;11.70;;;3.10;;
75209;SDS011;63796;53.136;14.882;2023-12-20T09:14:18;20.50;;;5.60;;
75209;SDS011;63796;53.136;14.882;2023-12-20T09:16:46;17.40;;;4.80;;
75209;SDS011;63796;53.136;14.882;2023-12-20T09:19:13;14.90;;;3.30;;
75209;SDS011;63796;53.136;14.882;2023-12-20T09:21:40;11.10;;;2.50;;
75209;SDS011;63796;53.136;14.882;2023-12-20T09:24:08;9.30;;;2.00;;
75209;SDS011;63796;53.136;14.882;2023-12-20T09:26:36;10.70;;;3.40;;
75209;SDS011;63796;53.136;14.882;2023-12-20T09:29:03;5.20;;;1.30;;
75209;SDS011;63796;53.136;14.882;2023-12-20T09:31:30;5.60;;;1.60;;
75209;SDS011;63796;53.136;14.882;2023-12-20T09:33:58;12.00;;;3.40;;
75209;SDS011;63796;53.136;14.882;2023-12-20T09:36:26;9.40;;;2.90;;
75209;SDS011;63796;53.136;14.882;2023-12-20T09:38:54;11.80;;;3.00;;
75209;SDS011;63796;53.136;14.882;2023-12-20T09:41:23;12.00;;;4.60;;
75209;SDS011;63796;53.136;14.882;2023-12-20T09:43:53;14.90;;;3.90;;
75209;SDS011;63796;53.136;14.882;2023-12-20T09:46:22;58.50;;;16.80;;
75209;SDS011;63796;53.136;14.882;2023-12-20T09:48:52;20.30;;;5.60;;
75209;SDS011;63796;53.136;14.882;2023-12-20T09:51:20;15.50;;;3.60;;
75209;SDS011;63796;53.136;14.882;2023-12-20T09:53:48;14.60;;;5.10;;
75209;SDS011;63796;53.136;14.882;2023-12-20T09:56:16;11.40;;;4.00;;
75209;SDS011;63796;53.136;14.882;2023-12-20T09:58:43;14.20;;;4.10;;
75209;SDS011;63796;53.136;14.882;2023-12-20T10:01:11;16.00;;;5.30;;
75209;SDS011;63796;53.136;14.882;2023-12-20T10:03:39;13.40;;;3.40;;
75209;SDS011;63796;53.136;14.882;2023-12-20T10:06:09;13.30;;;3.40;;
75209;SDS011;63796;53.136;14.882;2023-12-20T10:08:37;20.90;;;7.20;;
75209;SDS011;63796;53.136;14.882;2023-12-20T10:11:05;14.80;;;3.60;;
75209;SDS011;63796;53.136;14.882;2023-12-20T10:13:33;17.30;;;4.90;;
75209;SDS011;63796;53.136;14.882;2023-12-20T10:16:01;7.30;;;2.40;;
75209;SDS011;63796;53.136;14.882;2023-12-20T10:18:29;10.20;;;3.40;;
75209;SDS011;63796;53.136;14.882;2023-12-20T10:21:06;16.70;;;5.60;;
75209;SDS011;63796;53.136;14.882;2023-12-20T10:23:34;21.70;;;6.10;;
75209;SDS011;63796;53.136;14.882;2023-12-20T10:26:02;26.40;;;7.20;;
75209;SDS011;63796;53.136;14.882;2023-12-20T10:28:33;22.40;;;5.30;;
75209;SDS011;63796;53.136;14.882;2023-12-20T10:31:02;13.90;;;4.40;;
75209;SDS011;63796;53.136;14.882;2023-12-20T10:33:30;17.00;;;4.10;;
75209;SDS011;63796;53.136;14.882;2023-12-20T10:36:00;14.90;;;4.80;;
75209;SDS011;63796;53.136;14.882;2023-12-20T10:38:27;11.80;;;3.40;;
75209;SDS011;63796;53.136;14.882;2023-12-20T10:40:58;20.80;;;6.20;;
75209;SDS011;63796;53.136;14.882;2023-12-20T10:43:30;11.70;;;2.90;;
75209;SDS011;63796;53.136;14.882;2023-12-20T10:45:59;12.30;;;3.30;;
75209;SDS011;63796;53.136;14.882;2023-12-20T10:48:27;8.70;;;2.40;;
75209;SDS011;63796;53.136;14.882;2023-12-20T10:50:58;14.10;;;3.90;;
75209;SDS011;63796;53.136;14.882;2023-12-20T10:53:25;10.90;;;3.50;;
75209;SDS011;63796;53.136;14.882;2023-12-20T10:55:55;10.20;;;2.80;;
75209;SDS011;63796;53.136;14.882;2023-12-20T10:58:24;11.00;;;2.40;;
75209;SDS011;63796;53.136;14.882;2023-12-20T11:01:01;7.10;;;1.80;;
75209;SDS011;63796;53.136;14.882;2023-12-20T11:03:36;8.40;;;2.00;;
75209;SDS011;63796;53.136;14.882;2023-12-20T11:08:48;4.50;;;1.90;;
75209;SDS011;63796;53.136;14.882;2023-12-20T11:11:21;7.90;;;2.40;;
75209;SDS011;63796;53.136;14.882;2023-12-20T11:14:04;4.80;;;1.50;;
75209;SDS011;63796;53.136;14.882;2023-12-20T11:16:32;6.60;;;1.00;;
75209;SDS011;63796;53.136;14.882;2023-12-20T11:19:14;8.10;;;1.60;;
75209;SDS011;63796;53.136;14.882;2023-12-20T11:21:42;6.40;;;2.40;;
75209;SDS011;63796;53.136;14.882;2023-12-20T11:24:10;4.00;;;1.20;;
75209;SDS011;63796;53.136;14.882;2023-12-20T11:26:38;5.30;;;2.00;;
75209;SDS011;63796;53.136;14.882;2023-12-20T11:29:34;8.90;;;2.00;;
75209;SDS011;63796;53.136;14.882;2023-12-20T11:34:51;6.60;;;1.00;;
75209;SDS011;63796;53.136;14.882;2023-12-20T11:37:21;2.40;;;0.80;;
75209;SDS011;63796;53.136;14.882;2023-12-20T11:39:55;6.20;;;1.50;;
75209;SDS011;63796;53.136;14.882;2023-12-20T11:42:24;7.20;;;1.60;;
75209;SDS011;63796;53.136;14.882;2023-12-20T11:44:51;7.40;;;2.40;;
75209;SDS011;63796;53.136;14.882;2023-12-20T11:47:19;8.20;;;1.60;;
75209;SDS011;63796;53.136;14.882;2023-12-20T11:49:47;9.50;;;1.80;;
75209;SDS011;63796;53.136;14.882;2023-12-20T11:52:16;5.40;;;1.70;;
75209;SDS011;63796;53.136;14.882;2023-12-20T11:54:44;8.00;;;2.30;;
75209;SDS011;63796;53.136;14.882;2023-12-20T11:57:11;13.50;;;4.90;;
75209;SDS011;63796;53.136;14.882;2023-12-20T11:59:39;6.60;;;2.10;;
75209;SDS011;63796;53.136;14.882;2023-12-20T12:02:07;9.60;;;2.20;;
75209;SDS011;63796;53.136;14.882;2023-12-20T12:04:34;3.90;;;1.10;;
75209;SDS011;63796;53.136;14.882;2023-12-20T12:07:02;6.30;;;1.70;;
75209;SDS011;63796;53.136;14.882;2023-12-20T12:09:30;3.20;;;0.80;;
75209;SDS011;63796;53.136;14.882;2023-12-20T12:11:58;6.20;;;1.50;;
75209;SDS011;63796;53.136;14.882;2023-12-20T12:14:26;6.40;;;2.00;;
75209;SDS011;63796;53.136;14.882;2023-12-20T12:16:54;4.90;;;1.50;;
75209;SDS011;63796;53.136;14.882;2023-12-20T12:19:23;8.50;;;1.60;;
75209;SDS011;63796;53.136;14.882;2023-12-20T12:22:03;7.70;;;1.50;;
75209;SDS011;63796;53.136;14.882;2023-12-20T12:24:32;10.50;;;1.50;;
75209;SDS011;63796;53.136;14.882;2023-12-20T12:26:59;5.00;;;0.60;;
75209;SDS011;63796;53.136;14.882;2023-12-20T12:29:27;3.90;;;0.80;;
75209;SDS011;63796;53.136;14.882;2023-12-20T12:31:55;8.20;;;0.80;;
75209;SDS011;63796;53.136;14.882;2023-12-20T12:34:23;7.70;;;1.50;;
75209;SDS011;63796;53.136;14.882;2023-12-20T12:36:51;6.50;;;1.10;;
75209;SDS011;63796;53.136;14.882;2023-12-20T12:39:18;8.30;;;1.10;;
75209;SDS011;63796;53.136;14.882;2023-12-20T12:41:46;4.70;;;1.00;;
75209;SDS011;63796;53.136;14.882;2023-12-20T12:44:14;7.20;;;0.90;;
75209;SDS011;63796;53.136;14.882;2023-12-20T12:46:45;5.60;;;0.80;;
75209;SDS011;63796;53.136;14.882;2023-12-20T12:49:13;8.80;;;1.30;;
75209;SDS011;63796;53.136;14.882;2023-12-20T12:51:41;4.50;;;0.50;;
75209;SDS011;63796;53.136;14.882;2023-12-20T12:54:08;4.70;;;0.60;;
75209;SDS011;63796;53.136;14.882;2023-12-20T12:56:37;3.60;;;0.70;;
75209;SDS011;63796;53.136;14.882;2023-12-20T12:59:04;4.80;;;0.80;;
75209;SDS011;63796;53.136;14.882;2023-12-20T13:01:32;6.10;;;1.40;;
75209;SDS011;63796;53.136;14.882;2023-12-20T13:04:00;13.40;;;3.70;;
75209;SDS011;63796;53.136;14.882;2023-12-20T13:06:30;13.40;;;4.30;;
75209;SDS011;63796;53.136;14.882;2023-12-20T13:08:57;15.10;;;3.90;;
75209;SDS011;63796;53.136;14.882;2023-12-20T13:11:25;8.20;;;3.00;;
75209;SDS011;63796;53.136;14.882;2023-12-20T13:13:52;11.30;;;3.20;;
75209;SDS011;63796;53.136;14.882;2023-12-20T13:16:20;13.80;;;5.10;;
75209;SDS011;63796;53.136;14.882;2023-12-20T13:18:47;11.80;;;3.90;;
75209;SDS011;63796;53.136;14.882;2023-12-20T13:21:15;9.90;;;3.50;;
75209;SDS011;63796;53.136;14.882;2023-12-20T13:23:43;12.10;;;4.10;;
75209;SDS011;63796;53.136;14.882;2023-12-20T13:26:11;6.70;;;2.50;;
75209;SDS011;63796;53.136;14.882;2023-12-20T13:28:38;9.80;;;3.50;;
75209;SDS011;63796;53.136;14.882;2023-12-20T13:31:06;23.20;;;6.80;;
75209;SDS011;63796;53.136;14.882;2023-12-20T13:33:33;17.50;;;5.70;;
75209;SDS011;63796;53.136;14.882;2023-12-20T13:36:01;13.00;;;4.50;;
75209;SDS011;63796;53.136;14.882;2023-12-20T13:38:32;10.00;;;3.80;;
75209;SDS011;63796;53.136;14.882;2023-12-20T13:41:00;20.00;;;6.70;;
75209;SDS011;63796;53.136;14.882;2023-12-20T13:43:27;13.00;;;4.10;;
75209;SDS011;63796;53.136;14.882;2023-12-20T13:45:56;25.80;;;8.30;;
75209;SDS011;63796;53.136;14.882;2023-12-20T13:48:23;10.30;;;4.10;;
75209;SDS011;63796;53.136;14.882;2023-12-20T13:50:51;8.60;;;3.10;;
75209;SDS011;63796;53.136;14.882;2023-12-20T13:53:19;13.40;;;3.90;;
75209;SDS011;63796;53.136;14.882;2023-12-20T13:55:46;13.30;;;3.90;;
75209;SDS011;63796;53.136;14.882;2023-12-20T13:58:13;14.60;;;4.60;;
75209;SDS011;63796;53.136;14.882;2023-12-20T14:00:41;10.00;;;3.60;;
75209;SDS011;63796;53.136;14.882;2023-12-20T14:03:08;14.30;;;5.40;;
75209;SDS011;63796;53.136;14.882;2023-12-20T14:05:36;11.40;;;4.10;;
75209;SDS011;63796;53.136;14.882;2023-12-20T14:08:04;9.50;;;3.10;;
75209;SDS011;63796;53.136;14.882;2023-12-20T14:10:32;7.70;;;3.80;;
75209;SDS011;63796;53.136;14.882;2023-12-20T14:12:59;21.50;;;5.80;;
75209;SDS011;63796;53.136;14.882;2023-12-20T14:15:27;56.30;;;19.40;;
75209;SDS011;63796;53.136;14.882;2023-12-20T14:17:55;85.20;;;32.80;;
75209;SDS011;63796;53.136;14.882;2023-12-20T14:20:23;35.60;;;13.90;;
75209;SDS011;63796;53.136;14.882;2023-12-20T14:22:50;32.10;;;10.40;;
75209;SDS011;63796;53.136;14.882;2023-12-20T14:25:18;25.60;;;8.10;;
75209;SDS011;63796;53.136;14.882;2023-12-20T14:27:45;24.20;;;6.70;;
75209;SDS011;63796;53.136;14.882;2023-12-20T14:30:13;29.80;;;8.10;;
75209;SDS011;63796;53.136;14.882;2023-12-20T14:32:42;13.20;;;4.20;;
75209;SDS011;63796;53.136;14.882;2023-12-20T14:35:10;22.70;;;6.70;;
75209;SDS011;63796;53.136;14.882;2023-12-20T14:37:37;15.80;;;5.40;;